createdAt,value
2019-04-05T01:17:39.255Z,14.37
2019-04-05T01:20:08.461Z,13.67
2019-04-05T01:22:37.997Z,14.07
2019-04-05T01:25:07.247Z,14.73
2019-04-05T01:27:37.605Z,14.70
2019-04-05T01:30:07.682Z,12.27
2019-04-05T01:32:36.347Z,17.70
2019-04-05T01:35:06.703Z,17.87
2019-04-05T01:37:36.978Z,14.77
2019-04-05T01:40:09.112Z,13.37
2019-04-05T01:42:38.745Z,16.07
2019-04-05T01:45:08.506Z,14.40
2019-04-05T01:47:37.558Z,17.20
2019-04-05T01:50:09.622Z,17.57
2019-04-05T01:52:38.932Z,16.13
2019-04-05T01:55:08.034Z,16.50
2019-04-05T01:57:59.911Z,23.03
2019-04-05T02:00:28.565Z,18.60
2019-04-05T03:10:14.684Z,15.63
2019-04-05T03:39:07.154Z,13.03
2019-04-05T03:41:36.771Z,14.23
2019-04-05T03:44:37.242Z,14.83
2019-04-05T03:47:07.854Z,14.53
2019-04-05T03:49:36.778Z,14.93
2019-04-05T03:52:08.628Z,16.07
2019-04-05T03:54:37.432Z,14.27
2019-04-05T03:57:09.444Z,16.60
2019-04-05T03:59:39.770Z,15.63
2019-04-05T04:02:18.827Z,14.57
2019-04-05T04:05:09.752Z,19.70
2019-04-05T04:07:41.384Z,15.07
2019-04-05T04:10:21.136Z,16.63
2019-04-05T04:13:04.417Z,24.83
2019-04-05T04:15:38.723Z,20.50
2019-04-05T04:18:25.031Z,18.10
2019-04-05T04:21:11.914Z,16.67
2019-04-05T04:23:59.103Z,16.20
2019-04-05T04:26:27.441Z,13.97
2019-04-05T04:29:15.528Z,16.33
2019-04-05T04:31:54.636Z,14.53
2019-04-05T04:34:26.718Z,17.37
2019-04-05T04:37:09.459Z,22.30
2019-04-05T04:39:44.914Z,18.37
2019-04-05T04:45:20.353Z,16.03
2019-04-05T04:48:02.411Z,16.27
2019-04-05T04:50:29.550Z,19.03
2019-04-05T04:53:26.967Z,15.93
2019-04-05T04:55:45.915Z,20.63
2019-04-05T04:58:17.111Z,19.23
2019-04-05T05:00:47.641Z,16.53
2019-04-05T05:03:19.782Z,21.00
2019-04-05T05:08:27.109Z,19.93
2019-04-05T05:35:13.315Z,19.57
2019-04-05T05:37:47.806Z,20.50
2019-04-05T05:40:34.228Z,19.47
2019-04-05T05:43:16.341Z,21.60
2019-04-05T05:45:46.475Z,23.73
2019-04-05T05:48:16.818Z,21.67
2019-04-05T05:50:45.879Z,20.50
2019-04-05T05:53:14.689Z,20.57
2019-04-05T05:55:43.247Z,26.23
2019-04-05T05:58:11.827Z,19.03
2019-04-05T06:00:40.526Z,18.33
2019-04-05T06:03:11.173Z,20.97
2019-04-05T06:05:39.339Z,22.60
2019-04-05T06:08:07.931Z,14.87
2019-04-05T06:10:36.599Z,18.30
2019-04-05T06:13:07.071Z,20.23
2019-04-05T06:15:37.578Z,21.63
2019-04-05T06:18:06.090Z,19.13
2019-04-05T06:20:34.742Z,18.00
2019-04-05T06:23:03.226Z,18.77
2019-04-05T06:25:31.786Z,15.37
2019-04-05T06:28:00.486Z,17.27
2019-04-05T06:30:29.197Z,23.93
2019-04-05T06:32:57.941Z,64.43
2019-04-05T06:35:26.656Z,20.13
2019-04-05T06:37:55.194Z,18.03
2019-04-05T06:40:23.670Z,16.97
2019-04-05T06:42:52.345Z,18.80
2019-04-05T06:45:21.041Z,15.47
2019-04-05T06:47:51.578Z,17.97
2019-04-05T06:50:19.937Z,22.07
2019-04-05T06:52:48.610Z,16.77
2019-04-05T06:55:17.322Z,17.40
2019-04-05T06:57:46.170Z,16.45
2019-04-05T07:00:15.018Z,18.70
2019-04-05T07:02:43.672Z,19.77
2019-04-05T07:08:06.289Z,14.60
2019-04-05T07:10:35.160Z,16.43
2019-04-05T07:13:04.396Z,15.33
2019-04-05T07:15:33.219Z,13.67
2019-04-05T07:18:01.816Z,14.13
2019-04-05T07:20:30.468Z,12.23
2019-04-05T07:22:59.387Z,14.70
2019-04-05T07:25:29.527Z,15.87
2019-04-05T07:27:58.469Z,17.13
2019-04-05T07:30:28.837Z,18.87
2019-04-05T07:32:57.574Z,12.77
2019-04-05T07:35:33.338Z,15.83
2019-04-05T07:37:56.260Z,14.23
2019-04-05T07:40:24.876Z,14.70
2019-04-05T07:42:53.420Z,13.90
2019-04-05T07:45:22.136Z,11.00
2019-04-05T07:47:50.830Z,11.43
2019-04-05T07:50:19.593Z,12.07
2019-04-05T07:52:48.223Z,11.23
2019-04-05T07:55:17.089Z,17.43
2019-04-05T07:57:46.117Z,16.17
2019-04-05T08:00:20.686Z,14.90
2019-04-05T08:02:49.237Z,13.97
2019-04-05T08:05:17.972Z,13.57
2019-04-05T08:07:49.115Z,12.50
2019-04-05T08:10:17.968Z,10.60
2019-04-05T08:12:49.224Z,12.90
2019-04-05T08:15:17.941Z,11.27
2019-04-05T08:17:46.664Z,12.93
2019-04-05T08:20:15.608Z,13.47
2019-04-05T08:22:44.209Z,13.87
2019-04-05T08:25:12.957Z,16.73
2019-04-05T08:27:41.624Z,13.90
2019-04-05T08:30:10.411Z,12.03
2019-04-05T08:32:39.068Z,12.87
2019-04-05T08:35:07.826Z,13.67
2019-04-05T08:37:36.740Z,11.00
2019-04-05T08:40:09.133Z,14.13
2019-04-05T08:42:37.856Z,11.87
2019-04-05T08:45:07.035Z,14.07
2019-04-05T08:47:35.770Z,12.37
2019-04-05T08:50:06.685Z,10.23
2019-04-05T08:52:35.324Z,14.83
2019-04-05T08:55:05.100Z,11.20
2019-04-05T08:57:33.758Z,10.40
2019-04-05T09:00:02.546Z,8.90
2019-04-05T09:02:31.302Z,10.73
2019-04-05T09:04:59.948Z,9.90
2019-04-05T09:07:28.536Z,8.73
2019-04-05T09:09:57.297Z,7.03
2019-04-05T09:12:25.967Z,9.87
2019-04-05T09:14:54.503Z,9.90
2019-04-05T09:17:23.075Z,6.03
2019-04-05T09:19:53.950Z,10.10
2019-04-05T09:22:22.256Z,6.57
2019-04-05T09:24:50.986Z,6.47
2019-04-05T09:27:19.620Z,8.60
2019-04-05T09:29:48.214Z,13.53
2019-04-05T09:32:16.829Z,9.20
2019-04-05T09:34:45.490Z,9.27
2019-04-05T09:37:14.114Z,9.33
2019-04-05T09:39:42.813Z,6.23
2019-04-05T09:42:11.432Z,6.40
2019-04-05T09:44:40.058Z,6.03
2019-04-05T09:47:09.180Z,7.50
2019-04-05T09:49:39.332Z,6.47
2019-04-05T09:52:08.446Z,5.30
2019-04-05T09:54:37.182Z,3.87
2019-04-05T09:57:06.025Z,8.97
2019-04-05T09:59:34.633Z,5.37
2019-04-05T10:02:03.317Z,4.67
2019-04-05T10:04:31.961Z,11.13
2019-04-05T10:07:00.756Z,6.00
2019-04-05T10:09:29.384Z,9.07
2019-04-05T10:11:58.170Z,9.20
2019-04-05T10:14:26.788Z,6.30
2019-04-05T10:16:55.340Z,6.80
2019-04-05T10:19:23.923Z,5.83
2019-04-05T10:21:52.754Z,5.03
2019-04-05T10:24:21.450Z,4.90
2019-04-05T10:26:50.090Z,9.47
2019-04-05T10:29:18.736Z,4.10
2019-04-05T10:31:47.339Z,5.47
2019-04-05T10:34:15.966Z,9.97
2019-04-05T10:36:44.585Z,6.60
2019-04-05T10:39:13.260Z,4.90
2019-04-05T10:41:41.966Z,4.10
2019-04-05T10:44:12.258Z,4.53
2019-04-05T10:46:40.935Z,4.40
2019-04-05T10:49:09.587Z,5.70
2019-04-05T10:51:38.266Z,8.90
2019-04-05T10:54:09.268Z,6.10
2019-04-05T10:56:37.322Z,8.90
2019-04-05T10:59:06.075Z,5.80
2019-04-05T11:01:34.684Z,6.87
2019-04-05T11:04:03.366Z,5.87
2019-04-05T11:06:31.992Z,4.57
2019-04-05T11:09:00.554Z,4.70
2019-04-05T11:11:30.758Z,6.37
2019-04-05T11:13:59.296Z,6.70
2019-04-05T11:16:27.820Z,5.58
2019-04-05T11:18:56.472Z,9.33
2019-04-05T11:21:25.086Z,5.07
2019-04-05T11:23:55.778Z,6.73
2019-04-05T11:26:24.092Z,4.60
2019-04-05T11:28:52.719Z,5.20
2019-04-05T11:31:21.336Z,5.97
2019-04-05T11:33:50.129Z,11.40
2019-04-05T11:36:19.448Z,5.83
2019-04-05T11:38:50.798Z,10.57
2019-04-05T11:41:18.880Z,4.90
2019-04-05T11:43:49.912Z,8.33
2019-04-05T11:46:18.598Z,5.50
2019-04-05T11:48:48.027Z,4.97
2019-04-05T11:51:16.690Z,3.90
2019-04-05T11:53:45.308Z,5.37
2019-04-05T11:56:15.132Z,5.73
2019-04-05T11:58:48.479Z,4.53
2019-04-05T12:01:17.734Z,4.10
2019-04-05T12:03:46.436Z,4.30
2019-04-05T12:06:15.569Z,3.13
2019-04-05T12:08:44.249Z,4.50
2019-04-05T12:11:13.006Z,3.73
2019-04-05T12:13:41.629Z,6.80
2019-04-05T12:16:10.682Z,3.43
2019-04-05T12:18:39.505Z,6.17
2019-04-05T12:21:08.206Z,6.23
2019-04-05T12:23:37.134Z,5.60
2019-04-05T12:26:05.846Z,4.33
2019-04-05T12:28:34.622Z,4.37
2019-04-05T12:31:03.281Z,4.20
2019-04-05T12:33:31.992Z,3.87
2019-04-05T12:36:00.604Z,5.70
2019-04-05T12:38:33.112Z,4.90
2019-04-05T12:41:03.907Z,5.40
2019-04-05T12:43:33.298Z,4.60
2019-04-05T12:46:02.148Z,6.03
2019-04-05T12:48:30.918Z,3.83
2019-04-05T12:51:01.417Z,6.97
2019-04-05T12:53:30.416Z,4.33
2019-04-05T12:55:58.997Z,4.37
2019-04-05T12:58:27.762Z,5.03
2019-04-05T13:00:57.033Z,4.23
2019-04-05T13:03:25.811Z,5.43
2019-04-05T13:05:56.909Z,5.10
2019-04-05T13:08:24.709Z,5.30
2019-04-05T13:10:55.817Z,3.70
2019-04-05T13:13:26.630Z,5.03
2019-04-05T13:15:54.619Z,5.63
2019-04-05T13:18:25.122Z,3.80
2019-04-05T13:20:53.604Z,3.77
2019-04-05T13:23:22.261Z,3.00
2019-04-05T13:25:51.091Z,4.37
2019-04-05T13:28:19.722Z,5.60
2019-04-05T13:30:49.300Z,7.20
2019-04-05T13:33:18.153Z,3.77
2019-04-05T13:35:46.733Z,3.97
2019-04-05T13:38:15.357Z,3.90
2019-04-05T13:40:44.139Z,6.27
2019-04-05T13:43:12.806Z,4.70
2019-04-05T13:45:41.570Z,5.43
2019-04-05T13:48:10.401Z,6.23
2019-04-05T13:50:41.397Z,8.30
2019-04-05T13:53:11.100Z,5.93
2019-04-05T13:55:40.734Z,4.63
2019-04-05T13:58:11.198Z,4.43
2019-04-05T14:00:40.247Z,4.77
2019-04-05T14:03:08.900Z,5.20
2019-04-05T14:05:37.550Z,6.63
2019-04-05T14:08:10.366Z,6.87
2019-04-05T14:10:36.937Z,7.03
2019-04-05T14:13:05.615Z,4.87
2019-04-05T14:15:34.249Z,2.97
2019-04-05T14:18:02.943Z,4.97
2019-04-05T14:20:31.647Z,13.53
2019-04-05T14:23:00.205Z,4.70
2019-04-05T14:25:30.273Z,5.73
2019-04-05T14:27:58.965Z,4.93
2019-04-05T14:30:27.638Z,5.03
2019-04-05T14:32:56.361Z,4.67
2019-04-05T14:35:25.577Z,6.10
2019-04-05T14:37:54.544Z,5.07
2019-04-05T14:40:23.917Z,3.10
2019-04-05T14:42:52.605Z,4.77
2019-04-05T14:45:21.349Z,4.50
2019-04-05T14:47:58.429Z,7.77
2019-04-05T14:50:28.336Z,5.80
2019-04-05T14:53:00.772Z,4.10
2019-04-05T14:55:29.455Z,7.17
2019-04-05T14:57:57.351Z,6.17
2019-04-05T15:00:25.987Z,5.00
2019-04-05T15:02:54.571Z,3.73
2019-04-05T15:05:23.149Z,9.03
2019-04-05T15:07:54.825Z,4.30
2019-04-05T15:10:24.867Z,8.70
2019-04-05T15:12:52.634Z,6.30
2019-04-05T15:15:21.379Z,5.30
2019-04-05T15:17:49.943Z,6.30
2019-04-05T15:20:18.717Z,18.30
2019-04-05T15:22:47.425Z,8.30
2019-04-05T15:25:17.835Z,6.90
2019-04-05T15:27:46.543Z,7.77
2019-04-05T15:30:15.317Z,8.30
2019-04-05T15:32:44.065Z,10.63
2019-04-05T15:35:13.159Z,9.27
2019-04-05T15:37:41.715Z,6.40
2019-04-05T15:40:11.949Z,7.50
2019-04-05T15:42:40.551Z,6.70
2019-04-05T15:45:09.600Z,8.00
2019-04-05T15:47:38.624Z,6.63
2019-04-05T15:50:10.473Z,7.47
2019-04-05T15:52:39.021Z,11.33
2019-04-05T15:55:07.898Z,7.10
2019-04-05T15:57:39.362Z,9.60
2019-04-05T16:00:11.553Z,6.37
2019-04-05T16:02:42.817Z,7.97
2019-04-05T16:05:11.037Z,7.80
2019-04-05T16:07:39.785Z,9.50
2019-04-05T16:10:10.711Z,10.87
2019-04-05T16:12:39.398Z,10.40
2019-04-05T16:15:11.374Z,10.50
2019-04-05T16:17:39.979Z,10.63
2019-04-05T16:20:10.267Z,10.30
2019-04-05T16:22:38.915Z,14.00
2019-04-05T16:25:08.358Z,11.40
2019-04-05T16:27:37.027Z,24.90
2019-04-05T16:30:08.181Z,17.73
2019-04-05T16:32:36.895Z,14.67
2019-04-05T16:35:08.477Z,14.53
2019-04-05T16:37:37.121Z,13.33
2019-04-05T16:40:09.707Z,15.97
2019-04-05T16:42:38.423Z,12.27
2019-04-05T16:45:09.482Z,19.57
2019-04-05T16:47:38.221Z,15.37
2019-04-05T16:50:09.037Z,15.57
2019-04-05T16:52:44.808Z,17.80
2019-04-05T16:55:09.105Z,15.40
2019-04-05T16:57:37.807Z,17.40
2019-04-05T17:00:10.023Z,29.27
2019-04-05T17:02:38.654Z,23.90
2019-04-05T17:05:08.049Z,19.63
2019-04-05T17:07:37.223Z,20.87
2019-04-05T17:10:06.622Z,20.17
2019-04-05T17:12:37.753Z,21.23
2019-04-05T17:15:07.823Z,18.30
2019-04-05T17:17:36.535Z,24.43
2019-04-05T17:20:06.174Z,18.20
2019-04-05T17:22:34.829Z,20.33
2019-04-05T17:25:04.761Z,18.57
2019-04-05T17:27:33.433Z,20.20
2019-04-05T17:30:02.181Z,22.07
2019-04-05T17:32:30.760Z,20.53
2019-04-05T17:34:59.415Z,25.50
2019-04-05T17:37:28.137Z,22.07
2019-04-05T17:39:56.865Z,24.50
2019-04-05T17:42:25.595Z,20.10
2019-04-05T17:44:54.295Z,19.87
2019-04-05T17:47:24.643Z,22.43
2019-04-05T17:49:53.297Z,22.17
2019-04-05T17:52:21.983Z,22.60
2019-04-05T17:54:50.583Z,22.20
2019-04-05T17:57:19.339Z,21.30
2019-04-05T17:59:48.330Z,23.90
2019-04-05T18:02:17.251Z,24.23
2019-04-05T18:04:45.867Z,28.40
2019-04-05T18:07:14.619Z,28.90
2019-04-05T18:09:43.369Z,30.00
2019-04-05T18:12:11.995Z,29.63
2019-04-05T18:14:40.573Z,27.73
2019-04-05T18:17:09.259Z,27.27
2019-04-05T18:19:37.970Z,29.40
2019-04-05T18:22:06.741Z,27.53
2019-04-05T18:24:42.729Z,28.73
2019-04-05T18:27:11.506Z,30.83
2019-04-05T18:29:40.118Z,31.13
2019-04-05T18:32:08.767Z,25.80
2019-04-05T18:34:37.416Z,37.57
2019-04-05T18:37:06.153Z,33.33
2019-04-05T18:39:35.009Z,34.73
2019-04-05T18:42:03.654Z,30.80
2019-04-05T18:44:32.277Z,25.90
2019-04-05T18:47:01.049Z,28.83
2019-04-05T18:49:29.697Z,29.93
2019-04-05T18:51:58.307Z,30.17
2019-04-05T18:54:26.929Z,28.53
2019-04-05T18:56:55.542Z,30.97
2019-04-05T18:59:24.249Z,27.53
2019-04-05T19:01:52.853Z,27.75
2019-04-05T19:04:21.687Z,28.40
2019-04-05T19:06:50.310Z,32.37
2019-04-05T19:09:19.082Z,31.73
2019-04-05T19:11:47.735Z,32.23
2019-04-05T19:14:16.405Z,30.30
2019-04-05T19:16:44.948Z,30.90
2019-04-05T19:19:13.781Z,29.93
2019-04-05T19:21:45.605Z,33.27
2019-04-05T19:24:14.418Z,30.07
2019-04-05T19:26:43.308Z,32.20
2019-04-05T19:29:13.368Z,29.70
2019-04-05T19:49:15.748Z,25.80
2019-04-05T19:51:44.705Z,27.60
2019-04-05T19:54:13.402Z,25.63
2019-04-05T19:56:42.054Z,27.07
2019-04-05T19:59:10.835Z,23.80
2019-04-05T20:01:39.513Z,27.10
2019-04-05T20:04:13.911Z,30.97
2019-04-05T20:06:39.991Z,29.40
2019-04-05T20:09:08.733Z,27.50
2019-04-05T20:11:37.351Z,27.93
2019-04-05T20:14:06.091Z,26.23
2019-04-05T20:16:34.681Z,30.87
2019-04-05T20:19:03.472Z,24.20
2019-04-05T20:21:32.102Z,29.67
2019-04-05T20:24:05.791Z,26.63
2019-04-05T20:26:30.898Z,25.50
2019-04-05T20:28:59.607Z,30.07
2019-04-05T20:31:28.119Z,27.03
2019-04-05T20:33:56.906Z,29.53
2019-04-05T20:36:25.596Z,31.77
2019-04-05T20:38:54.197Z,30.70
2019-04-05T20:41:22.710Z,32.83
2019-04-05T20:43:51.397Z,28.20
2019-04-05T20:46:20.025Z,31.83
2019-04-05T20:48:48.700Z,31.83
2019-04-05T20:51:17.338Z,36.00
2019-04-05T20:53:45.968Z,39.00
2019-04-05T20:56:14.562Z,38.37
2019-04-05T20:58:43.255Z,46.77
2019-04-05T21:01:11.817Z,46.93
2019-04-05T21:03:40.453Z,50.90
2019-04-05T21:06:09.076Z,50.10
2019-04-05T21:08:37.653Z,53.03
2019-04-05T21:11:06.320Z,51.73
2019-04-05T21:13:35.066Z,54.60
2019-04-05T21:16:03.767Z,59.63
2019-04-05T21:18:32.374Z,53.83
2019-04-05T21:21:01.011Z,55.87
2019-04-05T21:23:29.582Z,55.83
2019-04-05T21:25:58.184Z,59.90
2019-04-05T21:28:26.820Z,56.10
2019-04-05T21:30:55.443Z,57.57
2019-04-05T21:33:24.171Z,58.80
2019-04-05T21:35:52.883Z,58.33
2019-04-05T21:38:21.521Z,58.50
2019-04-05T21:40:50.210Z,59.83
2019-04-05T21:43:18.793Z,57.83
2019-04-05T21:45:47.435Z,61.43
2019-04-05T21:48:16.124Z,60.97
2019-04-05T21:50:45.245Z,65.20
2019-04-05T21:53:13.947Z,57.83
2019-04-05T21:55:42.796Z,55.23
2019-04-05T21:58:11.629Z,57.47
2019-04-05T22:00:42.050Z,58.33
2019-04-05T22:03:10.693Z,59.77
2019-04-05T22:05:39.381Z,62.53
2019-04-05T22:08:08.049Z,66.43
2019-04-05T22:10:36.950Z,62.47
2019-04-05T22:13:06.250Z,66.87
2019-04-05T22:15:37.194Z,70.17
2019-04-05T22:18:05.818Z,69.20
2019-04-05T22:20:34.492Z,72.57
2019-04-05T22:23:06.683Z,69.07
2019-04-05T22:25:43.497Z,76.23
2019-04-05T22:28:12.065Z,74.27
2019-04-05T22:30:40.736Z,75.00
2019-04-05T22:33:09.384Z,76.30
2019-04-05T22:35:38.057Z,73.13
2019-04-05T22:38:06.730Z,76.10
2019-04-05T22:40:35.418Z,72.30
2019-04-05T22:43:04.079Z,76.60
2019-04-05T22:45:32.689Z,76.10
2019-04-05T22:48:01.331Z,71.83
2019-04-05T22:50:29.912Z,68.47
2019-04-05T22:52:58.564Z,73.10
2019-04-05T22:55:27.234Z,71.47
2019-04-05T22:57:55.916Z,72.40
2019-04-05T23:00:24.543Z,72.33
2019-04-05T23:02:53.260Z,74.90
2019-04-05T23:05:21.950Z,70.70
2019-04-05T23:07:50.631Z,69.57
2019-04-05T23:10:19.313Z,73.83
2019-04-05T23:12:47.980Z,69.53
2019-04-05T23:15:16.726Z,70.40
2019-04-05T23:17:45.397Z,72.70
2019-04-05T23:20:14.181Z,73.77
2019-04-05T23:22:42.840Z,74.37
2019-04-05T23:25:21.447Z,75.17
2019-04-05T23:27:41.882Z,74.50
2019-04-05T23:30:10.741Z,73.67
2019-04-05T23:32:39.507Z,76.63
2019-04-05T23:35:08.473Z,72.60
2019-04-05T23:37:37.143Z,70.27
2019-04-05T23:40:06.798Z,70.07
2019-04-05T23:42:35.464Z,69.90
2019-04-05T23:45:06.450Z,71.97
2019-04-05T23:47:35.074Z,71.10
2019-04-05T23:50:04.323Z,70.37
2019-04-05T23:52:32.938Z,73.63
2019-04-05T23:55:01.660Z,74.47
2019-04-05T23:57:30.338Z,74.50
2019-04-05T23:59:59.001Z,77.73
